sensor_id;sensor_type;location;lat;lon;timestamp;temperature;humidity
57843;DHT22;43673;51.058;3.734;2022-12-08T00:01:13;5.60;99.90
57843;DHT22;43673;51.058;3.734;2022-12-08T00:03:40;5.60;99.90
57843;DHT22;43673;51.058;3.734;2022-12-08T00:06:09;5.50;99.90
57843;DHT22;43673;51.058;3.734;2022-12-08T00:08:55;5.60;99.90
57843;DHT22;43673;51.058;3.734;2022-12-08T00:11:40;5.50;99.90
57843;DHT22;43673;51.058;3.734;2022-12-08T00:14:05;5.50;99.90
57843;DHT22;43673;51.058;3.734;2022-12-08T00:16:31;5.70;99.90
57843;DHT22;43673;51.058;3.734;2022-12-08T00:18:57;5.50;99.90
57843;DHT22;43673;51.058;3.734;2022-12-08T00:21:22;5.50;99.90
57843;DHT22;43673;51.058;3.734;2022-12-08T00:23:54;5.50;99.90
57843;DHT22;43673;51.058;3.734;2022-12-08T00:26:23;5.50;99.90
57843;DHT22;43673;51.058;3.734;2022-12-08T00:28:49;5.70;99.90
57843;DHT22;43673;51.058;3.734;2022-12-08T00:31:14;5.70;99.90
57843;DHT22;43673;51.058;3.734;2022-12-08T00:33:40;5.50;99.90
57843;DHT22;43673;51.058;3.734;2022-12-08T00:36:11;5.50;99.90
57843;DHT22;43673;51.058;3.734;2022-12-08T00:38:38;5.50;99.90
57843;DHT22;43673;51.058;3.734;2022-12-08T00:41:16;5.60;99.90
57843;DHT22;43673;51.058;3.734;2022-12-08T00:43:42;5.60;99.90
57843;DHT22;43673;51.058;3.734;2022-12-08T00:46:08;5.50;99.90
57843;DHT22;43673;51.058;3.734;2022-12-08T00:48:33;5.60;99.90
57843;DHT22;43673;51.058;3.734;2022-12-08T00:50:59;5.80;99.90
57843;DHT22;43673;51.058;3.734;2022-12-08T00:53:25;5.70;99.90
57843;DHT22;43673;51.058;3.734;2022-12-08T00:55:51;5.90;99.90
57843;DHT22;43673;51.058;3.734;2022-12-08T00:58:17;5.70;99.90
57843;DHT22;43673;51.058;3.734;2022-12-08T01:00:43;5.60;99.90
57843;DHT22;43673;51.058;3.734;2022-12-08T01:03:10;5.60;99.90
57843;DHT22;43673;51.058;3.734;2022-12-08T01:05:35;5.50;99.90
57843;DHT22;43673;51.058;3.734;2022-12-08T01:08:04;5.50;99.90
57843;DHT22;43673;51.058;3.734;2022-12-08T01:10:30;5.50;99.90
57843;DHT22;43673;51.058;3.734;2022-12-08T01:12:57;5.30;99.90
57843;DHT22;43673;51.058;3.734;2022-12-08T01:15:23;5.30;99.90
57843;DHT22;43673;51.058;3.734;2022-12-08T01:17:48;5.40;99.90
57843;DHT22;43673;51.058;3.734;2022-12-08T01:20:14;5.40;99.90
57843;DHT22;43673;51.058;3.734;2022-12-08T01:22:40;5.40;99.90
57843;DHT22;43673;51.058;3.734;2022-12-08T01:25:05;5.40;99.90
57843;DHT22;43673;51.058;3.734;2022-12-08T01:27:31;5.50;99.90
57843;DHT22;43673;51.058;3.734;2022-12-08T01:29:57;5.60;99.90
57843;DHT22;43673;51.058;3.734;2022-12-08T01:32:22;5.60;99.90
57843;DHT22;43673;51.058;3.734;2022-12-08T01:34:48;5.80;99.90
57843;DHT22;43673;51.058;3.734;2022-12-08T01:37:14;5.70;99.90
57843;DHT22;43673;51.058;3.734;2022-12-08T01:39:39;5.70;99.90
57843;DHT22;43673;51.058;3.734;2022-12-08T01:42:12;5.80;99.90
57843;DHT22;43673;51.058;3.734;2022-12-08T01:47:08;6.00;99.90
57843;DHT22;43673;51.058;3.734;2022-12-08T01:49:35;5.90;99.90
57843;DHT22;43673;51.058;3.734;2022-12-08T01:54:29;5.90;99.90
57843;DHT22;43673;51.058;3.734;2022-12-08T01:57:06;5.90;99.90
57843;DHT22;43673;51.058;3.734;2022-12-08T01:59:38;5.90;99.90
57843;DHT22;43673;51.058;3.734;2022-12-08T02:02:07;5.90;99.90
57843;DHT22;43673;51.058;3.734;2022-12-08T02:04:33;5.90;99.90
57843;DHT22;43673;51.058;3.734;2022-12-08T02:07:00;5.80;99.90
57843;DHT22;43673;51.058;3.734;2022-12-08T02:09:26;5.70;99.90
57843;DHT22;43673;51.058;3.734;2022-12-08T02:11:53;5.60;99.90
57843;DHT22;43673;51.058;3.734;2022-12-08T02:14:21;5.60;99.90
57843;DHT22;43673;51.058;3.734;2022-12-08T02:28:09;5.00;99.90
57843;DHT22;43673;51.058;3.734;2022-12-08T02:41:52;4.70;99.90
57843;DHT22;43673;51.058;3.734;2022-12-08T02:44:53;4.70;99.90
57843;DHT22;43673;51.058;3.734;2022-12-08T02:47:21;4.70;99.90
57843;DHT22;43673;51.058;3.734;2022-12-08T02:49:48;4.70;99.90
57843;DHT22;43673;51.058;3.734;2022-12-08T02:55:04;5.00;99.90
57843;DHT22;43673;51.058;3.734;2022-12-08T02:57:45;5.00;99.90
57843;DHT22;43673;51.058;3.734;2022-12-08T03:00:19;5.10;99.90
57843;DHT22;43673;51.058;3.734;2022-12-08T03:03:14;5.10;99.90
57843;DHT22;43673;51.058;3.734;2022-12-08T03:11:23;5.20;99.90
57843;DHT22;43673;51.058;3.734;2022-12-08T03:13:51;5.20;99.90
57843;DHT22;43673;51.058;3.734;2022-12-08T03:16:25;5.30;99.90
57843;DHT22;43673;51.058;3.734;2022-12-08T03:19:01;5.20;99.90
57843;DHT22;43673;51.058;3.734;2022-12-08T03:21:28;5.30;99.90
57843;DHT22;43673;51.058;3.734;2022-12-08T03:23:55;5.30;99.90
57843;DHT22;43673;51.058;3.734;2022-12-08T03:26:29;5.50;99.90
57843;DHT22;43673;51.058;3.734;2022-12-08T03:28:56;5.40;99.90
57843;DHT22;43673;51.058;3.734;2022-12-08T03:31:24;5.60;99.90
57843;DHT22;43673;51.058;3.734;2022-12-08T03:33:51;5.50;99.90
57843;DHT22;43673;51.058;3.734;2022-12-08T03:36:19;5.50;99.90
57843;DHT22;43673;51.058;3.734;2022-12-08T03:38:47;5.80;99.90
57843;DHT22;43673;51.058;3.734;2022-12-08T03:41:14;5.60;99.90
57843;DHT22;43673;51.058;3.734;2022-12-08T03:43:43;5.60;99.90
57843;DHT22;43673;51.058;3.734;2022-12-08T03:46:09;5.60;99.90
57843;DHT22;43673;51.058;3.734;2022-12-08T03:48:35;5.60;99.90
57843;DHT22;43673;51.058;3.734;2022-12-08T03:51:01;5.60;99.90
57843;DHT22;43673;51.058;3.734;2022-12-08T03:53:26;5.50;99.90
57843;DHT22;43673;51.058;3.734;2022-12-08T03:55:52;5.50;99.90
57843;DHT22;43673;51.058;3.734;2022-12-08T03:58:18;5.50;99.90
57843;DHT22;43673;51.058;3.734;2022-12-08T04:00:44;5.40;99.90
57843;DHT22;43673;51.058;3.734;2022-12-08T04:03:10;5.30;99.90
57843;DHT22;43673;51.058;3.734;2022-12-08T04:05:35;5.20;99.90
57843;DHT22;43673;51.058;3.734;2022-12-08T04:08:01;5.10;99.90
57843;DHT22;43673;51.058;3.734;2022-12-08T04:10:27;5.10;99.90
57843;DHT22;43673;51.058;3.734;2022-12-08T04:12:52;5.10;99.90
57843;DHT22;43673;51.058;3.734;2022-12-08T04:15:18;5.00;99.90
57843;DHT22;43673;51.058;3.734;2022-12-08T04:17:44;5.00;99.90
57843;DHT22;43673;51.058;3.734;2022-12-08T04:20:10;5.00;99.90
57843;DHT22;43673;51.058;3.734;2022-12-08T04:22:35;4.90;99.90
57843;DHT22;43673;51.058;3.734;2022-12-08T04:25:01;4.90;99.90
57843;DHT22;43673;51.058;3.734;2022-12-08T04:27:27;4.90;99.90
57843;DHT22;43673;51.058;3.734;2022-12-08T04:29:54;4.90;99.90
57843;DHT22;43673;51.058;3.734;2022-12-08T04:32:20;5.20;99.90
57843;DHT22;43673;51.058;3.734;2022-12-08T04:34:45;5.00;99.90
57843;DHT22;43673;51.058;3.734;2022-12-08T04:37:11;5.10;99.90
57843;DHT22;43673;51.058;3.734;2022-12-08T04:39:37;5.00;99.90
57843;DHT22;43673;51.058;3.734;2022-12-08T04:42:02;5.20;99.90
57843;DHT22;43673;51.058;3.734;2022-12-08T04:44:28;5.00;99.90
57843;DHT22;43673;51.058;3.734;2022-12-08T04:46:54;5.00;99.90
57843;DHT22;43673;51.058;3.734;2022-12-08T04:49:19;5.10;99.90
57843;DHT22;43673;51.058;3.734;2022-12-08T04:51:45;5.00;99.90
57843;DHT22;43673;51.058;3.734;2022-12-08T04:54:11;4.90;99.90
57843;DHT22;43673;51.058;3.734;2022-12-08T04:56:36;4.90;99.90
57843;DHT22;43673;51.058;3.734;2022-12-08T04:59:02;4.90;99.90
57843;DHT22;43673;51.058;3.734;2022-12-08T05:01:28;5.10;99.90
57843;DHT22;43673;51.058;3.734;2022-12-08T05:03:53;5.00;99.90
57843;DHT22;43673;51.058;3.734;2022-12-08T05:06:19;5.10;99.90
57843;DHT22;43673;51.058;3.734;2022-12-08T05:08:44;5.10;99.90
57843;DHT22;43673;51.058;3.734;2022-12-08T05:11:11;5.10;99.90
57843;DHT22;43673;51.058;3.734;2022-12-08T05:13:37;5.10;99.90
57843;DHT22;43673;51.058;3.734;2022-12-08T05:16:04;5.20;99.90
57843;DHT22;43673;51.058;3.734;2022-12-08T05:18:30;5.20;99.90
57843;DHT22;43673;51.058;3.734;2022-12-08T05:20:56;5.20;99.90
57843;DHT22;43673;51.058;3.734;2022-12-08T05:23:21;5.20;99.90
57843;DHT22;43673;51.058;3.734;2022-12-08T05:25:47;5.10;99.90
57843;DHT22;43673;51.058;3.734;2022-12-08T05:28:13;5.10;99.90
57843;DHT22;43673;51.058;3.734;2022-12-08T05:30:38;5.10;99.90
57843;DHT22;43673;51.058;3.734;2022-12-08T05:33:04;4.90;99.90
57843;DHT22;43673;51.058;3.734;2022-12-08T05:35:29;4.90;99.90
57843;DHT22;43673;51.058;3.734;2022-12-08T05:37:55;4.80;99.90
57843;DHT22;43673;51.058;3.734;2022-12-08T05:40:21;5.00;99.90
57843;DHT22;43673;51.058;3.734;2022-12-08T05:42:46;4.80;99.90
57843;DHT22;43673;51.058;3.734;2022-12-08T05:45:12;5.00;99.90
57843;DHT22;43673;51.058;3.734;2022-12-08T05:47:38;4.80;99.90
57843;DHT22;43673;51.058;3.734;2022-12-08T05:50:04;4.80;99.90
57843;DHT22;43673;51.058;3.734;2022-12-08T05:52:31;4.80;99.90
57843;DHT22;43673;51.058;3.734;2022-12-08T05:54:56;4.80;99.90
57843;DHT22;43673;51.058;3.734;2022-12-08T05:57:22;4.90;99.90
57843;DHT22;43673;51.058;3.734;2022-12-08T05:59:51;4.90;99.90
57843;DHT22;43673;51.058;3.734;2022-12-08T06:02:17;4.90;99.90
57843;DHT22;43673;51.058;3.734;2022-12-08T06:04:43;4.90;99.90
57843;DHT22;43673;51.058;3.734;2022-12-08T06:07:08;5.00;99.90
57843;DHT22;43673;51.058;3.734;2022-12-08T06:09:34;5.10;99.90
57843;DHT22;43673;51.058;3.734;2022-12-08T06:12:00;5.00;99.90
57843;DHT22;43673;51.058;3.734;2022-12-08T06:14:26;5.20;99.90
57843;DHT22;43673;51.058;3.734;2022-12-08T06:16:52;5.30;99.90
57843;DHT22;43673;51.058;3.734;2022-12-08T06:19:18;5.20;99.90
57843;DHT22;43673;51.058;3.734;2022-12-08T06:21:43;5.10;99.90
57843;DHT22;43673;51.058;3.734;2022-12-08T06:24:09;5.20;99.90
57843;DHT22;43673;51.058;3.734;2022-12-08T06:26:35;5.30;99.90
57843;DHT22;43673;51.058;3.734;2022-12-08T06:29:01;5.30;99.90
57843;DHT22;43673;51.058;3.734;2022-12-08T06:31:26;5.20;99.90
57843;DHT22;43673;51.058;3.734;2022-12-08T06:33:53;5.30;99.90
57843;DHT22;43673;51.058;3.734;2022-12-08T06:36:21;5.40;99.90
57843;DHT22;43673;51.058;3.734;2022-12-08T06:38:47;5.40;99.90
57843;DHT22;43673;51.058;3.734;2022-12-08T06:41:15;5.50;99.90
57843;DHT22;43673;51.058;3.734;2022-12-08T06:43:41;5.50;99.90
57843;DHT22;43673;51.058;3.734;2022-12-08T06:46:10;5.60;99.90
57843;DHT22;43673;51.058;3.734;2022-12-08T06:48:36;5.50;99.90
57843;DHT22;43673;51.058;3.734;2022-12-08T06:51:10;5.50;99.90
57843;DHT22;43673;51.058;3.734;2022-12-08T06:53:37;5.50;99.90
57843;DHT22;43673;51.058;3.734;2022-12-08T06:56:03;5.50;99.90
57843;DHT22;43673;51.058;3.734;2022-12-08T06:58:28;5.40;99.90
57843;DHT22;43673;51.058;3.734;2022-12-08T07:00:54;5.40;99.90
57843;DHT22;43673;51.058;3.734;2022-12-08T07:03:20;5.40;99.90
57843;DHT22;43673;51.058;3.734;2022-12-08T07:05:45;5.40;99.90
57843;DHT22;43673;51.058;3.734;2022-12-08T07:08:11;5.40;99.90
57843;DHT22;43673;51.058;3.734;2022-12-08T07:10:37;5.30;99.90
57843;DHT22;43673;51.058;3.734;2022-12-08T07:13:03;5.40;99.90
57843;DHT22;43673;51.058;3.734;2022-12-08T07:15:29;5.40;99.90
57843;DHT22;43673;51.058;3.734;2022-12-08T07:17:54;5.50;99.90
57843;DHT22;43673;51.058;3.734;2022-12-08T07:20:20;5.50;99.90
57843;DHT22;43673;51.058;3.734;2022-12-08T07:22:52;5.50;99.90
57843;DHT22;43673;51.058;3.734;2022-12-08T07:25:18;5.50;99.90
57843;DHT22;43673;51.058;3.734;2022-12-08T07:27:45;5.50;99.90
57843;DHT22;43673;51.058;3.734;2022-12-08T07:30:11;5.50;99.90
57843;DHT22;43673;51.058;3.734;2022-12-08T07:32:37;5.50;99.90
57843;DHT22;43673;51.058;3.734;2022-12-08T07:35:04;5.50;99.90
57843;DHT22;43673;51.058;3.734;2022-12-08T07:37:32;5.50;99.90
57843;DHT22;43673;51.058;3.734;2022-12-08T07:39:58;5.40;99.90
57843;DHT22;43673;51.058;3.734;2022-12-08T07:42:23;5.40;99.90
57843;DHT22;43673;51.058;3.734;2022-12-08T07:44:49;5.50;99.90
57843;DHT22;43673;51.058;3.734;2022-12-08T07:47:15;5.50;99.90
57843;DHT22;43673;51.058;3.734;2022-12-08T07:49:40;5.60;99.90
57843;DHT22;43673;51.058;3.734;2022-12-08T07:52:06;5.60;99.90
57843;DHT22;43673;51.058;3.734;2022-12-08T07:54:32;5.60;99.90
57843;DHT22;43673;51.058;3.734;2022-12-08T07:56:57;5.70;99.90
57843;DHT22;43673;51.058;3.734;2022-12-08T07:59:23;5.60;99.90
57843;DHT22;43673;51.058;3.734;2022-12-08T08:01:49;5.70;99.90
57843;DHT22;43673;51.058;3.734;2022-12-08T08:04:16;5.60;99.90
57843;DHT22;43673;51.058;3.734;2022-12-08T08:06:42;5.80;99.90
57843;DHT22;43673;51.058;3.734;2022-12-08T08:09:07;5.80;99.90
57843;DHT22;43673;51.058;3.734;2022-12-08T08:11:35;5.90;99.90
57843;DHT22;43673;51.058;3.734;2022-12-08T08:14:01;6.00;99.90
57843;DHT22;43673;51.058;3.734;2022-12-08T08:16:29;6.00;99.90
57843;DHT22;43673;51.058;3.734;2022-12-08T08:18:54;6.00;99.90
57843;DHT22;43673;51.058;3.734;2022-12-08T08:21:20;6.00;99.90
57843;DHT22;43673;51.058;3.734;2022-12-08T08:23:46;6.10;99.90
57843;DHT22;43673;51.058;3.734;2022-12-08T08:26:12;6.10;99.90
57843;DHT22;43673;51.058;3.734;2022-12-08T08:28:38;6.10;99.90
57843;DHT22;43673;51.058;3.734;2022-12-08T08:31:04;6.30;99.90
57843;DHT22;43673;51.058;3.734;2022-12-08T08:33:30;6.20;99.90
57843;DHT22;43673;51.058;3.734;2022-12-08T08:35:56;6.20;99.90
57843;DHT22;43673;51.058;3.734;2022-12-08T08:38:22;6.10;99.90
57843;DHT22;43673;51.058;3.734;2022-12-08T08:40:48;6.00;99.90
57843;DHT22;43673;51.058;3.734;2022-12-08T08:43:13;6.00;99.90
57843;DHT22;43673;51.058;3.734;2022-12-08T08:46:03;5.90;99.90
57843;DHT22;43673;51.058;3.734;2022-12-08T08:48:30;5.70;99.90
57843;DHT22;43673;51.058;3.734;2022-12-08T08:50:56;5.60;99.90
57843;DHT22;43673;51.058;3.734;2022-12-08T08:53:22;5.70;99.90
57843;DHT22;43673;51.058;3.734;2022-12-08T08:55:49;5.50;99.90
57843;DHT22;43673;51.058;3.734;2022-12-08T08:58:15;5.30;99.90
57843;DHT22;43673;51.058;3.734;2022-12-08T09:00:41;5.40;99.90
57843;DHT22;43673;51.058;3.734;2022-12-08T09:03:07;5.30;99.90
57843;DHT22;43673;51.058;3.734;2022-12-08T09:05:33;5.30;99.90
57843;DHT22;43673;51.058;3.734;2022-12-08T09:07:58;5.50;99.90
57843;DHT22;43673;51.058;3.734;2022-12-08T09:10:24;5.40;99.90
57843;DHT22;43673;51.058;3.734;2022-12-08T09:12:50;5.40;99.90
57843;DHT22;43673;51.058;3.734;2022-12-08T09:15:15;5.50;99.90
57843;DHT22;43673;51.058;3.734;2022-12-08T09:17:42;5.60;99.90
57843;DHT22;43673;51.058;3.734;2022-12-08T09:20:10;5.70;99.90
57843;DHT22;43673;51.058;3.734;2022-12-08T09:22:36;6.00;99.90
57843;DHT22;43673;51.058;3.734;2022-12-08T09:25:01;6.30;99.90
57843;DHT22;43673;51.058;3.734;2022-12-08T09:27:27;6.40;99.90
57843;DHT22;43673;51.058;3.734;2022-12-08T09:29:53;6.50;99.90
57843;DHT22;43673;51.058;3.734;2022-12-08T09:32:18;6.60;99.90
57843;DHT22;43673;51.058;3.734;2022-12-08T09:34:44;6.80;99.90
57843;DHT22;43673;51.058;3.734;2022-12-08T09:37:10;7.10;99.90
57843;DHT22;43673;51.058;3.734;2022-12-08T09:39:35;7.40;99.90
57843;DHT22;43673;51.058;3.734;2022-12-08T09:42:04;7.80;99.90
57843;DHT22;43673;51.058;3.734;2022-12-08T09:44:51;7.80;99.90
57843;DHT22;43673;51.058;3.734;2022-12-08T09:47:25;7.70;99.90
57843;DHT22;43673;51.058;3.734;2022-12-08T09:50:05;7.60;99.90
57843;DHT22;43673;51.058;3.734;2022-12-08T09:52:46;7.50;99.90
57843;DHT22;43673;51.058;3.734;2022-12-08T09:55:32;7.40;99.90
57843;DHT22;43673;51.058;3.734;2022-12-08T09:58:02;7.20;99.90
57843;DHT22;43673;51.058;3.734;2022-12-08T10:00:29;7.20;99.90
57843;DHT22;43673;51.058;3.734;2022-12-08T10:02:55;7.10;99.90
57843;DHT22;43673;51.058;3.734;2022-12-08T10:05:22;7.10;99.90
57843;DHT22;43673;51.058;3.734;2022-12-08T10:08:07;7.00;99.90
57843;DHT22;43673;51.058;3.734;2022-12-08T10:10:49;6.90;99.90
57843;DHT22;43673;51.058;3.734;2022-12-08T10:18:29;7.10;99.90
57843;DHT22;43673;51.058;3.734;2022-12-08T10:21:15;7.20;99.90
57843;DHT22;43673;51.058;3.734;2022-12-08T10:23:45;7.20;99.90
57843;DHT22;43673;51.058;3.734;2022-12-08T10:26:14;7.20;99.90
57843;DHT22;43673;51.058;3.734;2022-12-08T10:28:40;7.10;99.90
57843;DHT22;43673;51.058;3.734;2022-12-08T10:31:17;7.10;99.90
57843;DHT22;43673;51.058;3.734;2022-12-08T10:33:43;7.10;99.90
57843;DHT22;43673;51.058;3.734;2022-12-08T10:36:10;7.10;99.90
57843;DHT22;43673;51.058;3.734;2022-12-08T10:38:38;7.00;99.90
57843;DHT22;43673;51.058;3.734;2022-12-08T10:43:45;6.70;99.90
57843;DHT22;43673;51.058;3.734;2022-12-08T10:46:23;6.70;99.90
57843;DHT22;43673;51.058;3.734;2022-12-08T10:49:09;6.60;99.90
57843;DHT22;43673;51.058;3.734;2022-12-08T10:51:40;6.50;99.90
57843;DHT22;43673;51.058;3.734;2022-12-08T10:54:28;6.60;99.90
57843;DHT22;43673;51.058;3.734;2022-12-08T10:56:56;7.10;99.90
57843;DHT22;43673;51.058;3.734;2022-12-08T10:59:22;7.40;99.90
57843;DHT22;43673;51.058;3.734;2022-12-08T11:01:53;7.90;99.90
57843;DHT22;43673;51.058;3.734;2022-12-08T11:04:34;8.30;99.90
57843;DHT22;43673;51.058;3.734;2022-12-08T11:07:05;8.60;99.90
57843;DHT22;43673;51.058;3.734;2022-12-08T11:09:40;8.90;99.90
57843;DHT22;43673;51.058;3.734;2022-12-08T11:12:15;9.20;99.90
57843;DHT22;43673;51.058;3.734;2022-12-08T11:17:14;9.70;99.90
57843;DHT22;43673;51.058;3.734;2022-12-08T11:19:53;9.90;99.90
57843;DHT22;43673;51.058;3.734;2022-12-08T11:22:24;10.00;99.90
57843;DHT22;43673;51.058;3.734;2022-12-08T11:25:07;9.70;99.90
57843;DHT22;43673;51.058;3.734;2022-12-08T11:27:40;9.60;99.90
57843;DHT22;43673;51.058;3.734;2022-12-08T11:30:24;9.60;99.90
57843;DHT22;43673;51.058;3.734;2022-12-08T11:33:15;9.60;99.90
57843;DHT22;43673;51.058;3.734;2022-12-08T11:35:44;9.60;99.90
57843;DHT22;43673;51.058;3.734;2022-12-08T11:38:13;9.60;99.90
57843;DHT22;43673;51.058;3.734;2022-12-08T11:40:42;9.80;99.90
57843;DHT22;43673;51.058;3.734;2022-12-08T11:45:37;10.20;99.90
57843;DHT22;43673;51.058;3.734;2022-12-08T11:48:35;10.30;99.90
57843;DHT22;43673;51.058;3.734;2022-12-08T11:51:29;9.90;99.90
57843;DHT22;43673;51.058;3.734;2022-12-08T11:56:43;9.20;99.90
57843;DHT22;43673;51.058;3.734;2022-12-08T11:59:16;9.10;99.90
57843;DHT22;43673;51.058;3.734;2022-12-08T12:01:43;9.00;99.90
57843;DHT22;43673;51.058;3.734;2022-12-08T12:13:11;9.50;99.90
57843;DHT22;43673;51.058;3.734;2022-12-08T12:23:51;9.00;99.90
57843;DHT22;43673;51.058;3.734;2022-12-08T12:29:20;8.80;99.90
57843;DHT22;43673;51.058;3.734;2022-12-08T12:31:55;8.80;99.90
57843;DHT22;43673;51.058;3.734;2022-12-08T12:34:34;8.70;99.90
57843;DHT22;43673;51.058;3.734;2022-12-08T12:37:12;8.60;99.90
57843;DHT22;43673;51.058;3.734;2022-12-08T12:39:58;8.50;99.90
57843;DHT22;43673;51.058;3.734;2022-12-08T12:42:47;8.40;99.90
57843;DHT22;43673;51.058;3.734;2022-12-08T12:45:33;8.40;99.90
57843;DHT22;43673;51.058;3.734;2022-12-08T12:53:05;7.40;99.90
57843;DHT22;43673;51.058;3.734;2022-12-08T13:04:04;6.50;99.90
57843;DHT22;43673;51.058;3.734;2022-12-08T13:06:38;6.50;99.90
57843;DHT22;43673;51.058;3.734;2022-12-08T13:09:05;6.50;99.90
57843;DHT22;43673;51.058;3.734;2022-12-08T13:12:10;6.50;99.90
57843;DHT22;43673;51.058;3.734;2022-12-08T13:15:01;6.60;99.90
57843;DHT22;43673;51.058;3.734;2022-12-08T13:17:30;6.60;99.90
57843;DHT22;43673;51.058;3.734;2022-12-08T13:19:59;6.60;99.90
57843;DHT22;43673;51.058;3.734;2022-12-08T13:25:50;6.50;99.90
57843;DHT22;43673;51.058;3.734;2022-12-08T13:30:51;6.30;99.90
57843;DHT22;43673;51.058;3.734;2022-12-08T13:38:30;5.90;99.90
57843;DHT22;43673;51.058;3.734;2022-12-08T13:41:00;5.70;99.90
57843;DHT22;43673;51.058;3.734;2022-12-08T13:43:42;5.70;99.90
57843;DHT22;43673;51.058;3.734;2022-12-08T13:46:14;5.60;99.90
57843;DHT22;43673;51.058;3.734;2022-12-08T13:48:49;5.50;99.90
57843;DHT22;43673;51.058;3.734;2022-12-08T13:51:27;5.50;99.90
57843;DHT22;43673;51.058;3.734;2022-12-08T13:54:03;5.70;99.90
57843;DHT22;43673;51.058;3.734;2022-12-08T13:56:38;5.50;99.90
57843;DHT22;43673;51.058;3.734;2022-12-08T13:59:30;5.80;99.90
57843;DHT22;43673;51.058;3.734;2022-12-08T14:02:00;5.70;99.90
57843;DHT22;43673;51.058;3.734;2022-12-08T14:04:31;5.70;99.90
57843;DHT22;43673;51.058;3.734;2022-12-08T14:07:00;5.80;99.90
57843;DHT22;43673;51.058;3.734;2022-12-08T14:09:31;5.90;99.90
57843;DHT22;43673;51.058;3.734;2022-12-08T14:14:44;6.10;99.90
57843;DHT22;43673;51.058;3.734;2022-12-08T14:17:19;6.30;99.90
57843;DHT22;43673;51.058;3.734;2022-12-08T14:19:55;6.00;99.90
57843;DHT22;43673;51.058;3.734;2022-12-08T14:22:21;6.20;99.90
57843;DHT22;43673;51.058;3.734;2022-12-08T14:24:52;6.20;99.90
57843;DHT22;43673;51.058;3.734;2022-12-08T14:27:23;6.20;99.90
57843;DHT22;43673;51.058;3.734;2022-12-08T14:29:59;6.30;99.90
57843;DHT22;43673;51.058;3.734;2022-12-08T14:32:38;6.10;99.90
57843;DHT22;43673;51.058;3.734;2022-12-08T14:37:35;6.00;99.90
57843;DHT22;43673;51.058;3.734;2022-12-08T14:40:21;5.90;99.90
57843;DHT22;43673;51.058;3.734;2022-12-08T14:48:19;5.70;99.90
57843;DHT22;43673;51.058;3.734;2022-12-08T14:51:00;5.80;99.90
57843;DHT22;43673;51.058;3.734;2022-12-08T14:56:35;5.70;99.90
57843;DHT22;43673;51.058;3.734;2022-12-08T14:59:16;5.60;99.90
57843;DHT22;43673;51.058;3.734;2022-12-08T15:01:44;5.50;99.90
57843;DHT22;43673;51.058;3.734;2022-12-08T15:07:06;5.40;99.90
57843;DHT22;43673;51.058;3.734;2022-12-08T15:09:35;5.40;99.90
57843;DHT22;43673;51.058;3.734;2022-12-08T15:12:03;5.30;99.90
57843;DHT22;43673;51.058;3.734;2022-12-08T15:14:33;5.30;99.90
57843;DHT22;43673;51.058;3.734;2022-12-08T15:17:00;5.20;99.90
57843;DHT22;43673;51.058;3.734;2022-12-08T15:19:29;5.20;99.90
57843;DHT22;43673;51.058;3.734;2022-12-08T15:22:16;5.20;99.90
57843;DHT22;43673;51.058;3.734;2022-12-08T15:24:44;5.10;99.90
57843;DHT22;43673;51.058;3.734;2022-12-08T15:27:16;5.10;99.90
57843;DHT22;43673;51.058;3.734;2022-12-08T15:29:43;5.00;99.90
57843;DHT22;43673;51.058;3.734;2022-12-08T15:32:10;5.00;99.90
57843;DHT22;43673;51.058;3.734;2022-12-08T15:34:36;5.00;99.90
57843;DHT22;43673;51.058;3.734;2022-12-08T15:37:03;4.90;99.90
57843;DHT22;43673;51.058;3.734;2022-12-08T15:39:32;4.90;99.90
57843;DHT22;43673;51.058;3.734;2022-12-08T15:41:58;5.00;99.90
57843;DHT22;43673;51.058;3.734;2022-12-08T15:44:25;4.80;99.90
57843;DHT22;43673;51.058;3.734;2022-12-08T15:46:51;4.70;99.90
57843;DHT22;43673;51.058;3.734;2022-12-08T15:49:22;4.60;99.90
57843;DHT22;43673;51.058;3.734;2022-12-08T15:51:49;4.70;99.90
57843;DHT22;43673;51.058;3.734;2022-12-08T15:54:15;4.50;99.90
57843;DHT22;43673;51.058;3.734;2022-12-08T15:56:49;4.50;99.90
57843;DHT22;43673;51.058;3.734;2022-12-08T15:59:21;4.40;99.90
57843;DHT22;43673;51.058;3.734;2022-12-08T16:01:48;4.40;99.90
57843;DHT22;43673;51.058;3.734;2022-12-08T16:04:19;4.40;99.90
57843;DHT22;43673;51.058;3.734;2022-12-08T16:06:48;4.40;99.90
57843;DHT22;43673;51.058;3.734;2022-12-08T16:09:35;4.30;99.90
57843;DHT22;43673;51.058;3.734;2022-12-08T16:12:03;4.30;99.90
57843;DHT22;43673;51.058;3.734;2022-12-08T16:14:47;4.30;99.90
57843;DHT22;43673;51.058;3.734;2022-12-08T16:17:17;4.20;99.90
57843;DHT22;43673;51.058;3.734;2022-12-08T16:19:44;4.20;99.90
57843;DHT22;43673;51.058;3.734;2022-12-08T16:22:19;4.20;99.90
57843;DHT22;43673;51.058;3.734;2022-12-08T16:24:46;4.20;99.90
57843;DHT22;43673;51.058;3.734;2022-12-08T16:27:20;4.20;99.90
57843;DHT22;43673;51.058;3.734;2022-12-08T16:29:46;4.20;99.90
57843;DHT22;43673;51.058;3.734;2022-12-08T16:32:13;4.40;99.90
57843;DHT22;43673;51.058;3.734;2022-12-08T16:34:40;4.20;99.90
57843;DHT22;43673;51.058;3.734;2022-12-08T16:37:05;4.20;99.90
57843;DHT22;43673;51.058;3.734;2022-12-08T16:39:31;4.10;99.90
57843;DHT22;43673;51.058;3.734;2022-12-08T16:41:57;4.10;99.90
57843;DHT22;43673;51.058;3.734;2022-12-08T16:44:41;4.10;99.90
57843;DHT22;43673;51.058;3.734;2022-12-08T16:47:08;4.10;99.90
57843;DHT22;43673;51.058;3.734;2022-12-08T16:49:36;4.20;99.90
57843;DHT22;43673;51.058;3.734;2022-12-08T16:52:03;4.20;99.90
57843;DHT22;43673;51.058;3.734;2022-12-08T16:54:29;4.00;99.90
57843;DHT22;43673;51.058;3.734;2022-12-08T16:56:55;4.20;99.90
57843;DHT22;43673;51.058;3.734;2022-12-08T16:59:20;4.20;99.90
57843;DHT22;43673;51.058;3.734;2022-12-08T17:01:46;4.00;99.90
57843;DHT22;43673;51.058;3.734;2022-12-08T17:04:12;4.00;99.90
57843;DHT22;43673;51.058;3.734;2022-12-08T17:06:37;4.00;99.90
57843;DHT22;43673;51.058;3.734;2022-12-08T17:09:03;4.00;99.90
57843;DHT22;43673;51.058;3.734;2022-12-08T17:11:29;4.10;99.90
57843;DHT22;43673;51.058;3.734;2022-12-08T17:13:58;4.00;99.90
57843;DHT22;43673;51.058;3.734;2022-12-08T17:16:24;4.20;99.90
57843;DHT22;43673;51.058;3.734;2022-12-08T17:18:52;4.00;99.90
57843;DHT22;43673;51.058;3.734;2022-12-08T17:21:20;4.00;99.90
57843;DHT22;43673;51.058;3.734;2022-12-08T17:23:46;4.20;99.90
57843;DHT22;43673;51.058;3.734;2022-12-08T17:26:13;4.20;99.90
57843;DHT22;43673;51.058;3.734;2022-12-08T17:28:39;4.00;99.90
57843;DHT22;43673;51.058;3.734;2022-12-08T17:31:13;3.90;99.90
57843;DHT22;43673;51.058;3.734;2022-12-08T17:33:39;3.90;99.90
57843;DHT22;43673;51.058;3.734;2022-12-08T17:36:10;4.00;99.90
57843;DHT22;43673;51.058;3.734;2022-12-08T17:38:36;3.90;99.90
57843;DHT22;43673;51.058;3.734;2022-12-08T17:41:04;4.10;99.90
57843;DHT22;43673;51.058;3.734;2022-12-08T17:43:30;3.80;99.90
57843;DHT22;43673;51.058;3.734;2022-12-08T17:45:55;4.10;99.90
57843;DHT22;43673;51.058;3.734;2022-12-08T17:48:21;4.00;99.90
57843;DHT22;43673;51.058;3.734;2022-12-08T17:50:47;4.10;99.90